createdAt,value
2023-03-29T00:01:36.157Z,73.96
2023-03-29T00:04:10.166Z,73.65
2023-03-29T00:06:42.878Z,73.81
2023-03-29T00:09:15.595Z,73.37
2023-03-29T00:11:48.260Z,73.75
2023-03-29T00:14:20.887Z,73.71
2023-03-29T00:16:53.488Z,75.29
2023-03-29T00:19:26.514Z,75.32
2023-03-29T00:21:59.070Z,75.00
2023-03-29T00:24:31.872Z,75.39
2023-03-29T00:27:04.753Z,74.64
2023-03-29T00:29:37.697Z,74.97
2023-03-29T00:32:10.244Z,74.92
2023-03-29T00:34:45.651Z,75.14
2023-03-29T00:37:19.228Z,74.58
2023-03-29T00:39:51.751Z,74.85
2023-03-29T00:42:26.128Z,74.55
2023-03-29T00:45:16.379Z,74.80
2023-03-29T00:47:58.030Z,75.08
2023-03-29T00:50:36.265Z,75.49
2023-03-29T00:53:21.614Z,74.39
2023-03-29T00:56:06.300Z,74.44
2023-03-29T00:58:47.661Z,74.41
2023-03-29T01:01:34.050Z,74.50
2023-03-29T01:04:20.673Z,74.35
2023-03-29T01:07:12.947Z,74.22
2023-03-29T01:09:55.475Z,74.68
2023-03-29T01:12:39.074Z,75.34
2023-03-29T01:15:17.352Z,74.85
2023-03-29T01:17:53.827Z,75.03
2023-03-29T01:20:51.013Z,75.21
2023-03-29T01:23:38.262Z,75.34
2023-03-29T01:26:53.460Z,75.76
2023-03-29T01:29:48.932Z,75.57
2023-03-29T01:32:55.521Z,75.50
2023-03-29T01:35:44.672Z,75.26
2023-03-29T01:38:39.377Z,75.83
2023-03-29T01:41:12.516Z,75.20
2023-03-29T01:43:58.861Z,75.48
2023-03-29T01:46:53.164Z,75.43
2023-03-29T01:49:34.597Z,75.65
2023-03-29T01:52:13.075Z,75.47
2023-03-29T01:55:21.672Z,76.04
2023-03-29T01:57:59.066Z,75.56
2023-03-29T02:00:36.221Z,75.89
2023-03-29T02:03:10.523Z,75.62
2023-03-29T02:05:45.960Z,75.43
2023-03-29T02:08:22.244Z,75.41
2023-03-29T02:10:54.900Z,75.86
2023-03-29T02:13:27.464Z,75.45
2023-03-29T02:16:03.086Z,75.18
2023-03-29T02:18:36.312Z,75.25
2023-03-29T02:21:30.488Z,75.24
2023-03-29T02:24:11.206Z,74.40
2023-03-29T02:26:44.002Z,74.33
2023-03-29T02:29:17.073Z,74.52
2023-03-29T02:32:05.670Z,73.76
2023-03-29T02:34:56.535Z,73.25
2023-03-29T02:37:34.446Z,73.24
2023-03-29T02:40:09.098Z,72.28
2023-03-29T02:42:45.752Z,72.12
2023-03-29T02:45:19.613Z,72.75
2023-03-29T02:47:58.063Z,70.90
2023-03-29T02:50:40.056Z,71.43
2023-03-29T02:53:19.773Z,71.20
2023-03-29T02:55:52.730Z,70.89
2023-03-29T02:58:26.680Z,71.06
2023-03-29T03:01:02.530Z,70.65
2023-03-29T03:03:35.760Z,70.73
2023-03-29T03:06:08.639Z,70.96
2023-03-29T03:08:42.016Z,70.54
2023-03-29T03:11:15.229Z,69.79
2023-03-29T03:13:47.730Z,69.73
2023-03-29T03:16:20.520Z,70.14
2023-03-29T03:18:54.770Z,69.67
2023-03-29T03:21:30.419Z,70.06
2023-03-29T03:24:03.219Z,69.78
2023-03-29T03:26:38.193Z,70.16
2023-03-29T03:29:11.252Z,69.71
2023-03-29T03:31:44.503Z,70.26
2023-03-29T03:34:17.449Z,70.04
2023-03-29T03:36:50.560Z,69.60
2023-03-29T03:39:23.103Z,69.57
2023-03-29T03:41:55.820Z,69.50
2023-03-29T03:44:28.391Z,69.55
2023-03-29T03:47:00.969Z,69.69
2023-03-29T03:49:33.674Z,69.33
2023-03-29T03:52:06.659Z,69.22
2023-03-29T03:54:39.612Z,69.11
2023-03-29T03:57:12.746Z,68.87
2023-03-29T03:59:45.390Z,68.83
2023-03-29T04:02:18.054Z,69.27
2023-03-29T04:04:50.708Z,69.85
2023-03-29T04:07:25.344Z,68.79
2023-03-29T04:09:57.829Z,68.62
2023-03-29T04:12:30.619Z,69.14
2023-03-29T04:15:04.001Z,69.15
2023-03-29T04:17:36.999Z,69.36
2023-03-29T04:20:12.390Z,69.37
2023-03-29T04:22:45.221Z,69.38
2023-03-29T04:25:18.783Z,69.36
2023-03-29T04:27:51.302Z,69.59
2023-03-29T04:30:23.863Z,69.70
2023-03-29T04:32:56.926Z,69.57
2023-03-29T04:35:30.036Z,69.72
2023-03-29T04:38:04.409Z,69.38
2023-03-29T04:40:38.344Z,69.08
2023-03-29T04:43:10.964Z,69.14
2023-03-29T04:45:43.624Z,69.33
2023-03-29T04:48:16.309Z,68.84
2023-03-29T04:50:48.924Z,68.71
2023-03-29T04:53:22.212Z,69.62
2023-03-29T04:55:55.564Z,69.50
2023-03-29T04:58:32.277Z,69.42
2023-03-29T05:01:05.792Z,69.12
2023-03-29T05:03:38.776Z,69.69
2023-03-29T05:06:12.123Z,69.68
2023-03-29T05:08:44.793Z,68.55
2023-03-29T05:11:17.599Z,69.46
2023-03-29T05:13:50.090Z,69.76
2023-03-29T05:16:23.099Z,68.71
2023-03-29T05:18:57.103Z,69.76
2023-03-29T05:21:29.718Z,69.28
2023-03-29T05:24:02.784Z,69.38
2023-03-29T05:26:35.424Z,69.04
2023-03-29T05:29:09.124Z,68.96
2023-03-29T05:31:41.804Z,69.20
2023-03-29T05:34:14.420Z,68.92
2023-03-29T05:36:46.880Z,69.25
2023-03-29T05:39:19.389Z,68.78
2023-03-29T05:41:51.958Z,68.53
2023-03-29T05:44:24.526Z,68.52
2023-03-29T05:46:57.229Z,67.95
2023-03-29T05:49:29.740Z,68.74
2023-03-29T05:52:02.418Z,69.18
2023-03-29T05:54:34.935Z,68.62
2023-03-29T05:57:07.498Z,68.71
2023-03-29T05:59:40.108Z,69.39
2023-03-29T06:02:12.766Z,68.83
2023-03-29T06:04:45.472Z,68.76
2023-03-29T06:07:18.234Z,68.53
2023-03-29T06:09:50.755Z,68.19
2023-03-29T06:12:24.709Z,68.73
2023-03-29T06:15:03.104Z,68.62
2023-03-29T06:17:36.224Z,68.62
2023-03-29T06:20:10.786Z,68.71
2023-03-29T06:22:43.335Z,68.57
2023-03-29T06:25:17.445Z,67.94
2023-03-29T06:27:50.062Z,68.06
2023-03-29T06:30:22.639Z,68.35
2023-03-29T06:32:55.594Z,68.14
2023-03-29T06:35:28.283Z,68.30
2023-03-29T06:38:01.504Z,68.31
2023-03-29T06:40:34.376Z,68.38
2023-03-29T06:43:07.303Z,68.35
2023-03-29T06:45:40.668Z,68.13
2023-03-29T06:48:13.310Z,67.64
2023-03-29T06:50:49.035Z,67.93
2023-03-29T06:55:54.650Z,67.63
2023-03-29T06:58:27.481Z,67.36
2023-03-29T07:01:04.746Z,67.54
2023-03-29T07:03:39.128Z,66.84
2023-03-29T07:06:12.187Z,66.69
2023-03-29T07:08:44.979Z,67.17
2023-03-29T07:11:19.107Z,67.13
2023-03-29T07:13:51.584Z,66.95
2023-03-29T07:16:24.288Z,66.57
2023-03-29T07:18:57.391Z,67.14
2023-03-29T07:21:31.044Z,66.50
2023-03-29T07:24:04.787Z,66.69
2023-03-29T07:26:37.949Z,67.07
2023-03-29T07:29:10.667Z,66.77
2023-03-29T07:31:44.196Z,66.69
2023-03-29T07:34:17.484Z,66.38
2023-03-29T07:36:50.019Z,66.78
2023-03-29T07:39:22.718Z,67.32
2023-03-29T07:41:58.158Z,66.84
2023-03-29T07:44:30.769Z,66.76
2023-03-29T07:47:04.500Z,66.98
2023-03-29T07:49:36.963Z,67.59
2023-03-29T07:52:09.571Z,67.87
2023-03-29T07:54:42.113Z,68.18
2023-03-29T07:57:14.741Z,69.11
2023-03-29T07:59:47.273Z,69.54
2023-03-29T08:02:21.126Z,71.18
2023-03-29T08:04:54.563Z,71.60
2023-03-29T08:07:27.339Z,72.25
2023-03-29T08:10:00.072Z,72.84
2023-03-29T08:12:32.645Z,74.15
2023-03-29T08:15:06.410Z,74.15
2023-03-29T08:17:39.733Z,74.30
2023-03-29T08:20:16.291Z,74.31
2023-03-29T08:22:48.919Z,73.85
2023-03-29T08:25:21.778Z,74.47
2023-03-29T08:27:54.389Z,73.70
2023-03-29T08:30:27.604Z,72.95
2023-03-29T08:33:00.249Z,72.68
2023-03-29T08:35:32.820Z,72.82
2023-03-29T08:38:05.381Z,72.59
2023-03-29T08:40:38.072Z,72.39
2023-03-29T08:43:46.393Z,71.88
2023-03-29T08:46:35.408Z,71.03
2023-03-29T08:49:12.400Z,71.24
2023-03-29T08:51:57.810Z,70.91
2023-03-29T08:54:43.332Z,72.09
2023-03-29T08:57:31.559Z,71.72
2023-03-29T09:00:10.488Z,70.58
2023-03-29T09:02:45.808Z,71.32
2023-03-29T09:05:28.042Z,71.91
2023-03-29T09:08:01.769Z,71.79
2023-03-29T09:11:08.424Z,70.74
2023-03-29T09:14:05.632Z,70.41
2023-03-29T09:17:10.483Z,70.17
2023-03-29T09:19:59.571Z,70.02
2023-03-29T09:23:10.254Z,71.49
2023-03-29T09:26:16.222Z,70.47
2023-03-29T09:29:10.000Z,70.60
2023-03-29T09:31:45.977Z,71.49
2023-03-29T09:34:30.822Z,70.89
2023-03-29T09:37:31.956Z,72.13
2023-03-29T09:40:15.715Z,73.69
2023-03-29T09:42:52.621Z,74.42
2023-03-29T09:45:25.364Z,73.61
2023-03-29T09:48:09.036Z,74.78
2023-03-29T09:50:51.631Z,75.32
2023-03-29T09:53:24.912Z,76.26
2023-03-29T09:55:59.408Z,75.71
2023-03-29T09:58:32.755Z,76.41
2023-03-29T10:01:11.167Z,76.68
2023-03-29T10:03:53.326Z,76.65
2023-03-29T10:06:27.970Z,76.53
2023-03-29T10:09:01.171Z,75.88
2023-03-29T10:11:38.455Z,75.23
2023-03-29T10:14:14.922Z,75.84
2023-03-29T10:16:56.374Z,76.25
2023-03-29T10:19:35.117Z,74.73
2023-03-29T10:22:21.919Z,74.09
2023-03-29T10:24:57.239Z,73.74
2023-03-29T10:27:34.656Z,74.53
2023-03-29T10:30:21.380Z,74.49
2023-03-29T10:32:59.901Z,72.82
2023-03-29T10:35:44.205Z,73.08
2023-03-29T10:38:22.914Z,71.84
2023-03-29T10:41:07.983Z,70.71
2023-03-29T10:43:51.159Z,69.47
2023-03-29T10:46:30.512Z,68.59
2023-03-29T10:49:10.112Z,68.60
2023-03-29T10:51:52.023Z,68.50
2023-03-29T10:54:24.746Z,67.01
2023-03-29T10:57:05.182Z,67.67
2023-03-29T10:59:57.745Z,67.15
2023-03-29T11:03:16.218Z,67.39
2023-03-29T11:06:03.047Z,66.40
2023-03-29T11:08:59.593Z,65.46
2023-03-29T11:12:08.269Z,65.07
2023-03-29T11:15:10.882Z,64.54
2023-03-29T11:18:02.843Z,63.76
2023-03-29T11:21:12.863Z,64.73
2023-03-29T11:24:25.633Z,63.25
2023-03-29T11:27:00.715Z,64.16
2023-03-29T11:30:06.524Z,63.11
2023-03-29T11:33:08.556Z,62.74
2023-03-29T11:36:04.834Z,63.13
2023-03-29T11:39:15.748Z,62.64
2023-03-29T11:42:01.458Z,63.03
2023-03-29T11:44:38.433Z,62.84
2023-03-29T11:47:37.200Z,62.46
2023-03-29T11:50:22.737Z,61.71
2023-03-29T11:53:17.728Z,61.53
2023-03-29T11:55:52.631Z,60.66
2023-03-29T11:58:39.035Z,59.76
2023-03-29T12:01:36.681Z,59.91
2023-03-29T12:04:31.341Z,59.70
2023-03-29T12:07:21.481Z,59.54
2023-03-29T12:10:02.855Z,59.47
2023-03-29T12:12:59.600Z,59.99
2023-03-29T12:15:43.721Z,59.22
2023-03-29T12:18:31.966Z,60.00
2023-03-29T12:21:18.202Z,59.91
2023-03-29T12:23:52.280Z,59.70
2023-03-29T12:26:45.897Z,58.86
2023-03-29T12:30:18.485Z,58.90
2023-03-29T12:33:43.332Z,59.04
2023-03-29T12:37:12.460Z,58.14
2023-03-29T12:39:45.341Z,60.25
2023-03-29T12:42:22.136Z,59.69
2023-03-29T12:45:00.570Z,58.47
2023-03-29T12:47:43.145Z,58.27
2023-03-29T12:50:32.739Z,57.12
2023-03-29T12:53:25.795Z,56.82
2023-03-29T12:56:08.402Z,57.35
2023-03-29T12:59:15.733Z,56.48
2023-03-29T13:02:21.881Z,56.44
2023-03-29T13:05:02.047Z,55.81
2023-03-29T13:07:47.492Z,55.37
2023-03-29T13:10:42.219Z,56.53
2023-03-29T13:13:21.469Z,55.87
2023-03-29T13:15:55.017Z,56.23
2023-03-29T13:18:55.325Z,56.48
2023-03-29T13:22:06.059Z,55.65
2023-03-29T13:25:02.227Z,55.62
2023-03-29T13:27:52.360Z,54.59
2023-03-29T13:30:38.915Z,54.49
2023-03-29T13:34:03.870Z,55.28
2023-03-29T13:37:05.442Z,54.82
2023-03-29T13:39:53.026Z,55.20
2023-03-29T13:42:41.768Z,55.61
2023-03-29T13:45:27.455Z,54.77
2023-03-29T13:48:22.734Z,54.83
2023-03-29T13:51:02.053Z,55.17
2023-03-29T13:53:43.591Z,55.14
2023-03-29T13:56:28.334Z,54.43
2023-03-29T13:59:23.985Z,53.68
2023-03-29T14:02:00.552Z,53.55
2023-03-29T14:04:46.676Z,53.98
2023-03-29T14:07:26.133Z,53.73
2023-03-29T14:09:59.874Z,53.57
2023-03-29T14:12:41.730Z,53.76
2023-03-29T14:15:24.629Z,54.55
2023-03-29T14:18:00.249Z,54.83
2023-03-29T14:20:33.669Z,54.83
2023-03-29T14:23:13.319Z,56.15
2023-03-29T14:25:48.100Z,56.05
2023-03-29T14:28:27.853Z,55.68
2023-03-29T14:31:03.082Z,55.75
2023-03-29T14:33:37.730Z,56.17
2023-03-29T14:36:17.836Z,56.29
2023-03-29T14:38:59.642Z,55.88
2023-03-29T14:41:36.779Z,55.62
2023-03-29T14:44:09.458Z,56.23
2023-03-29T14:46:46.834Z,56.03
2023-03-29T14:49:22.868Z,55.53
2023-03-29T14:51:56.688Z,55.63
2023-03-29T14:54:34.039Z,54.65
2023-03-29T14:57:07.307Z,54.97
2023-03-29T14:59:43.388Z,54.78
2023-03-29T15:02:32.428Z,54.31
2023-03-29T15:05:25.570Z,53.62
2023-03-29T15:07:58.627Z,53.31
2023-03-29T15:10:36.651Z,53.32
2023-03-29T15:13:21.679Z,54.35
2023-03-29T15:16:00.750Z,53.59
2023-03-29T15:18:40.026Z,54.06
2023-03-29T15:21:18.164Z,54.78
2023-03-29T15:23:56.048Z,54.66
2023-03-29T15:26:36.629Z,55.80
2023-03-29T15:29:23.225Z,57.35
2023-03-29T15:31:58.969Z,57.08
2023-03-29T15:34:33.909Z,57.30
2023-03-29T15:37:08.108Z,57.93
2023-03-29T15:39:44.283Z,59.40
2023-03-29T15:42:42.686Z,58.66
2023-03-29T15:45:25.483Z,59.22
2023-03-29T15:48:22.826Z,58.88
2023-03-29T15:54:12.051Z,59.42
2023-03-29T15:56:53.027Z,59.00
2023-03-29T15:59:37.701Z,59.39
2023-03-29T16:02:24.389Z,59.17
2023-03-29T16:04:57.099Z,60.19
2023-03-29T16:07:30.125Z,60.47
2023-03-29T16:10:02.740Z,59.83
2023-03-29T16:12:37.842Z,60.18
2023-03-29T16:15:22.058Z,59.79
2023-03-29T16:17:54.653Z,60.06
2023-03-29T16:20:27.235Z,60.94
2023-03-29T16:22:59.759Z,61.22
2023-03-29T16:25:32.552Z,61.54
2023-03-29T16:28:07.793Z,61.50
2023-03-29T16:30:40.593Z,62.27
2023-03-29T16:33:13.290Z,62.45
2023-03-29T16:35:45.996Z,62.57
2023-03-29T16:38:18.655Z,63.55
2023-03-29T16:40:51.294Z,62.99
2023-03-29T16:43:23.870Z,63.82
2023-03-29T16:45:56.968Z,64.11
2023-03-29T16:48:29.588Z,64.85
2023-03-29T16:51:03.028Z,65.13
2023-03-29T16:53:35.781Z,65.07
2023-03-29T16:56:08.879Z,65.64
2023-03-29T16:58:41.647Z,65.47
2023-03-29T17:01:17.928Z,65.85
2023-03-29T17:03:50.556Z,66.24
2023-03-29T17:06:23.185Z,66.59
2023-03-29T17:08:55.764Z,67.45
2023-03-29T17:11:28.966Z,67.17
2023-03-29T17:14:01.784Z,66.31
2023-03-29T17:16:34.465Z,66.47
2023-03-29T17:19:06.967Z,66.85
2023-03-29T17:21:39.672Z,67.13
2023-03-29T17:24:12.197Z,66.63
2023-03-29T17:26:45.887Z,67.13
2023-03-29T17:29:18.543Z,68.12
2023-03-29T17:31:51.523Z,68.65
2023-03-29T17:34:24.070Z,69.08
2023-03-29T17:36:56.694Z,68.74
2023-03-29T17:39:30.023Z,68.70
2023-03-29T17:42:05.704Z,69.14
2023-03-29T17:44:38.252Z,69.11
2023-03-29T17:47:10.899Z,68.95
2023-03-29T17:49:43.364Z,69.77
2023-03-29T17:52:19.974Z,69.76
2023-03-29T17:54:52.802Z,69.92
2023-03-29T17:57:25.476Z,70.69
2023-03-29T17:59:58.067Z,70.88
2023-03-29T18:02:30.690Z,71.44
2023-03-29T18:05:04.445Z,71.10
2023-03-29T18:07:37.576Z,71.78
2023-03-29T18:10:10.830Z,71.62
2023-03-29T18:12:43.569Z,71.87
2023-03-29T18:15:18.496Z,71.70
2023-03-29T18:18:02.381Z,72.81
2023-03-29T18:20:35.008Z,72.67
2023-03-29T18:23:07.490Z,72.75
2023-03-29T18:25:40.099Z,72.46
2023-03-29T18:28:14.769Z,72.70
2023-03-29T18:30:52.308Z,72.95
2023-03-29T18:33:25.674Z,72.55
2023-03-29T18:36:00.479Z,72.04
2023-03-29T18:38:36.525Z,72.17
2023-03-29T18:41:12.323Z,72.80
2023-03-29T18:43:47.120Z,72.47
2023-03-29T18:46:19.835Z,72.36
2023-03-29T18:48:54.370Z,72.26
2023-03-29T18:51:28.326Z,72.35
2023-03-29T18:54:01.611Z,72.25
2023-03-29T18:56:35.584Z,72.52
2023-03-29T18:59:08.229Z,72.48
2023-03-29T19:01:41.217Z,72.47
2023-03-29T19:04:14.400Z,72.95
2023-03-29T19:06:47.556Z,73.66
2023-03-29T19:09:20.139Z,73.26
2023-03-29T19:11:52.837Z,73.17
2023-03-29T19:14:29.219Z,73.29
2023-03-29T19:17:02.028Z,74.37
2023-03-29T19:19:42.965Z,73.31
2023-03-29T19:22:19.254Z,73.83
2023-03-29T19:24:54.812Z,73.55
2023-03-29T19:27:32.699Z,73.35
2023-03-29T19:30:09.565Z,74.04
2023-03-29T19:32:44.473Z,73.97
2023-03-29T19:35:27.816Z,74.25
2023-03-29T19:38:03.125Z,74.46
2023-03-29T19:40:37.004Z,74.60
2023-03-29T19:43:09.798Z,74.83
2023-03-29T19:45:48.656Z,74.74
2023-03-29T19:48:22.943Z,74.34
2023-03-29T19:51:05.226Z,74.45
2023-03-29T19:53:41.783Z,74.73
2023-03-29T19:56:17.557Z,74.66
2023-03-29T19:58:56.615Z,75.45
2023-03-29T20:01:32.236Z,74.95
2023-03-29T20:04:04.951Z,74.72
2023-03-29T20:06:37.577Z,74.61
2023-03-29T20:09:11.213Z,74.34
2023-03-29T20:11:44.407Z,74.09
2023-03-29T20:14:16.943Z,74.28
2023-03-29T20:16:50.480Z,74.00
2023-03-29T20:19:25.257Z,74.05
2023-03-29T20:21:58.773Z,73.71
2023-03-29T20:24:32.528Z,74.04
2023-03-29T20:27:05.293Z,73.89
2023-03-29T20:29:37.961Z,73.64
2023-03-29T20:32:10.679Z,74.04
2023-03-29T20:34:43.231Z,73.77
2023-03-29T20:37:15.698Z,74.08
2023-03-29T20:39:49.511Z,73.28
2023-03-29T20:42:24.480Z,73.02
2023-03-29T20:44:57.079Z,73.36
2023-03-29T20:47:30.154Z,72.76
2023-03-29T20:50:04.138Z,72.70
2023-03-29T20:52:36.617Z,72.68
2023-03-29T20:55:09.438Z,72.57
2023-03-29T20:57:42.153Z,72.26
2023-03-29T21:00:15.515Z,72.07
2023-03-29T21:02:48.267Z,71.98
2023-03-29T21:05:22.348Z,71.67
2023-03-29T21:07:55.187Z,72.37
2023-03-29T21:10:28.304Z,71.88
2023-03-29T21:13:02.901Z,71.09
2023-03-29T21:15:35.909Z,71.33
2023-03-29T21:18:08.846Z,71.11
2023-03-29T21:20:42.005Z,70.93
2023-03-29T21:23:14.625Z,70.78
2023-03-29T21:25:47.130Z,70.39
2023-03-29T21:28:19.654Z,70.17
2023-03-29T21:30:52.186Z,70.32
2023-03-29T21:33:24.859Z,69.87
2023-03-29T21:35:57.374Z,70.24
2023-03-29T21:38:29.915Z,69.47
2023-03-29T21:41:05.364Z,69.94
2023-03-29T21:43:39.107Z,69.43
2023-03-29T21:46:12.511Z,68.59
2023-03-29T21:48:45.230Z,68.75
2023-03-29T21:51:17.915Z,68.83
2023-03-29T21:53:50.650Z,68.72
2023-03-29T21:56:23.331Z,68.13
2023-03-29T21:58:55.918Z,68.81
2023-03-29T22:01:28.718Z,68.53
2023-03-29T22:04:01.282Z,67.77
2023-03-29T22:06:33.863Z,68.20
2023-03-29T22:09:06.371Z,67.78
2023-03-29T22:11:39.153Z,67.96
2023-03-29T22:14:11.713Z,68.14
2023-03-29T22:16:45.498Z,67.92
2023-03-29T22:19:18.035Z,68.35
2023-03-29T22:21:51.345Z,68.61
2023-03-29T22:24:23.917Z,67.69
2023-03-29T22:26:56.434Z,67.78
2023-03-29T22:29:28.978Z,67.69
2023-03-29T22:32:01.826Z,67.51
2023-03-29T22:34:34.372Z,67.93
2023-03-29T22:37:06.878Z,68.64
2023-03-29T22:39:39.421Z,68.21
2023-03-29T22:42:11.970Z,68.12
2023-03-29T22:44:44.498Z,68.18
2023-03-29T22:47:17.500Z,67.94
2023-03-29T22:49:50.038Z,67.86
2023-03-29T22:52:23.690Z,67.71
2023-03-29T22:54:56.307Z,67.47
2023-03-29T22:57:28.896Z,67.62
2023-03-29T23:00:01.559Z,67.92
2023-03-29T23:02:34.437Z,67.01
2023-03-29T23:05:07.984Z,66.98
2023-03-29T23:07:40.472Z,67.22
2023-03-29T23:10:13.053Z,66.83
2023-03-29T23:12:45.606Z,66.70
2023-03-29T23:15:18.156Z,66.21
2023-03-29T23:17:50.780Z,65.75
2023-03-29T23:20:24.191Z,65.42
2023-03-29T23:22:57.121Z,65.08
2023-03-29T23:25:30.068Z,65.51
2023-03-29T23:28:03.016Z,65.19
2023-03-29T23:30:38.601Z,65.41
2023-03-29T23:33:11.561Z,64.74
2023-03-29T23:35:44.153Z,64.61
2023-03-29T23:38:16.873Z,64.41
2023-03-29T23:41:01.970Z,64.76
2023-03-29T23:43:40.374Z,64.63
2023-03-29T23:46:17.235Z,64.50
2023-03-29T23:48:50.845Z,63.42
2023-03-29T23:51:27.975Z,63.53
2023-03-29T23:54:02.124Z,63.17
2023-03-29T23:56:34.658Z,61.97
2023-03-29T23:59:07.496Z,61.97
